Time;durP1;ratioP1;P1;durP2;ratioP2;P2;SDS_P1;SDS_P2;PMS_P1;PMS_P2;Temp;Humidity;BMP_temperature;BMP_pressure;BME280_temperature;BME280_humidity;BME280_pressure;Samples;Min_cycle;Max_cycle;Signal;HPM_P1;HPM_P2
2021/04/27 00:02:18;;;;;;;18.70;12.43;;;1.60;99.90;;;;;;5071702;28;20111;-79
2021/04/27 00:04:44;;;;;;;17.60;11.43;;;1.60;99.90;;;;;;5071378;28;20029;-79
2021/04/27 00:07:11;;;;;;;18.98;12.20;;;1.60;99.90;;;;;;5071748;28;20522;-79
2021/04/27 00:09:37;;;;;;;18.67;11.85;;;1.60;99.90;;;;;;5071682;28;20031;-79
2021/04/27 00:12:03;;;;;;;17.08;12.15;;;1.60;99.90;;;;;;5071952;28;20035;-80
2021/04/27 00:14:29;;;;;;;16.08;11.48;;;1.60;99.90;;;;;;5071627;28;20035;-80
2021/04/27 00:16:54;;;;;;;16.02;10.73;;;1.60;99.90;;;;;;5071903;28;20028;-81
2021/04/27 00:19:20;;;;;;;18.10;10.63;;;1.50;99.90;;;;;;5071549;28;20465;-84
2021/04/27 00:21:46;;;;;;;15.40;11.63;;;1.60;99.90;;;;;;5075753;28;20025;-80
2021/04/27 00:24:11;;;;;;;17.00;11.45;;;1.40;99.90;;;;;;5075638;28;20028;-80
2021/04/27 00:26:37;;;;;;;16.95;11.40;;;1.40;99.90;;;;;;5075647;28;20082;-79
2021/04/27 00:29:04;;;;;;;16.45;11.63;;;1.40;99.90;;;;;;5075545;28;20056;-79
2021/04/27 00:31:30;;;;;;;14.77;11.20;;;1.40;99.90;;;;;;5075699;28;20821;-80
2021/04/27 00:33:59;;;;;;;15.18;10.52;;;1.30;99.90;;;;;;5075730;28;20028;-79
2021/04/27 00:36:26;;;;;;;14.55;10.07;;;1.30;99.90;;;;;;5076654;28;20047;-79
2021/04/27 00:38:52;;;;;;;13.02;10.63;;;1.30;99.90;;;;;;5074643;28;20025;-79
2021/04/27 00:41:18;;;;;;;14.27;10.35;;;1.20;99.90;;;;;;5074756;28;20115;-78
2021/04/27 00:43:44;;;;;;;14.88;10.90;;;1.20;99.90;;;;;;5075209;28;20028;-79
2021/04/27 00:46:10;;;;;;;14.73;10.18;;;1.30;99.90;;;;;;5076445;28;20036;-79
2021/04/27 00:48:36;;;;;;;15.70;10.30;;;1.30;99.90;;;;;;5075249;28;20020;-79
2021/04/27 00:51:02;;;;;;;14.20;10.05;;;1.30;99.90;;;;;;5074929;28;20071;-79
2021/04/27 00:53:29;;;;;;;18.17;11.23;;;1.20;99.90;;;;;;5075124;28;20031;-79
2021/04/27 00:55:55;;;;;;;13.45;10.05;;;1.20;99.90;;;;;;5075675;28;20016;-79
2021/04/27 00:58:21;;;;;;;14.65;10.20;;;1.20;99.90;;;;;;5075033;28;20029;-79
2021/04/27 01:00:49;;;;;;;16.88;10.57;;;1.20;99.90;;;;;;5074777;28;20140;-79
2021/04/27 01:03:15;;;;;;;16.17;10.90;;;1.10;99.90;;;;;;5074802;28;20467;-79
2021/04/27 01:05:42;;;;;;;15.80;11.25;;;1.00;99.90;;;;;;5074671;28;20388;-79
2021/04/27 01:08:47;;;;;;;15.10;11.10;;;1.00;99.90;;;;;;5074689;28;20506;-80
2021/04/27 01:11:28;;;;;;;16.42;10.60;;;1.00;99.90;;;;;;5066319;28;20037;-81
2021/04/27 01:14:05;;;;;;;15.45;11.07;;;0.90;99.90;;;;;;5074940;28;20048;-78
2021/04/27 01:16:33;;;;;;;14.15;11.00;;;1.00;99.90;;;;;;5074531;28;20430;-81
2021/04/27 01:18:59;;;;;;;16.20;10.85;;;1.00;99.90;;;;;;5074607;28;20013;-79
2021/04/27 01:21:28;;;;;;;13.10;10.27;;;1.00;99.90;;;;;;5074916;28;20033;-81
2021/04/27 01:24:09;;;;;;;16.58;10.43;;;1.00;99.90;;;;;;5074919;28;20032;-85
2021/04/27 01:26:43;;;;;;;13.80;9.90;;;1.00;99.90;;;;;;5076497;28;20036;-84
2021/04/27 01:29:13;;;;;;;12.52;10.15;;;1.10;99.90;;;;;;5074987;28;20387;-83
2021/04/27 01:31:39;;;;;;;15.02;10.88;;;1.00;99.90;;;;;;5074419;28;20037;-82
2021/04/27 01:34:07;;;;;;;13.13;9.30;;;1.00;99.90;;;;;;5074747;28;20029;-82
2021/04/27 01:36:35;;;;;;;14.10;9.85;;;1.00;99.90;;;;;;5074729;28;20078;-83
2021/04/27 01:39:01;;;;;;;14.73;9.90;;;1.00;99.90;;;;;;5075282;28;20024;-82
2021/04/27 01:41:26;;;;;;;13.30;10.77;;;1.00;99.90;;;;;;5074811;28;20021;-83
2021/04/27 01:43:53;;;;;;;14.52;10.93;;;0.90;99.90;;;;;;5074919;28;20502;-84
2021/04/27 01:46:20;;;;;;;16.20;10.90;;;0.90;99.90;;;;;;5075943;28;20110;-81
2021/04/27 01:48:46;;;;;;;16.90;11.45;;;0.90;99.90;;;;;;5074904;28;20024;-84
2021/04/27 01:51:12;;;;;;;15.38;11.10;;;0.90;99.90;;;;;;5075951;28;20544;-81
2021/04/27 01:53:43;;;;;;;14.88;11.07;;;0.90;99.90;;;;;;5074972;28;20116;-79
2021/04/27 01:56:08;;;;;;;17.00;11.00;;;0.90;99.90;;;;;;5073877;28;20043;-79
2021/04/27 01:58:34;;;;;;;16.42;11.45;;;0.90;99.90;;;;;;5073066;28;20017;-79
2021/04/27 02:01:01;;;;;;;16.67;11.82;;;0.90;99.90;;;;;;5073033;28;20101;-80
2021/04/27 02:03:28;;;;;;;16.00;10.90;;;0.90;99.90;;;;;;5073327;28;20017;-80
2021/04/27 02:05:53;;;;;;;16.00;11.23;;;0.90;99.90;;;;;;5073342;28;20039;-79
2021/04/27 02:08:19;;;;;;;15.50;11.07;;;0.90;99.90;;;;;;5073195;28;20020;-80
2021/04/27 02:10:45;;;;;;;16.15;10.63;;;0.90;99.90;;;;;;5072946;28;20024;-79
2021/04/27 02:13:14;;;;;;;16.52;11.40;;;0.90;99.90;;;;;;5073089;28;20055;-80
2021/04/27 02:15:41;;;;;;;13.63;10.40;;;0.90;99.90;;;;;;5073070;28;20029;-79
2021/04/27 02:18:38;;;;;;;18.48;11.23;;;0.90;99.90;;;;;;5072745;28;20412;-79
2021/04/27 02:21:04;;;;;;;15.35;11.35;;;0.90;99.90;;;;;;5072834;28;20024;-79
2021/04/27 02:23:31;;;;;;;14.35;10.07;;;0.80;99.90;;;;;;5073185;28;20123;-78
2021/04/27 02:25:58;;;;;;;15.15;11.10;;;0.70;99.90;;;;;;5073179;28;20033;-79
2021/04/27 02:28:25;;;;;;;15.38;10.88;;;0.70;99.90;;;;;;5074343;28;20024;-79
2021/04/27 02:30:52;;;;;;;18.02;11.02;;;0.70;99.90;;;;;;5073210;28;20037;-79
2021/04/27 02:33:18;;;;;;;15.35;10.45;;;0.70;99.90;;;;;;5073299;28;20071;-79
2021/04/27 02:35:47;;;;;;;14.75;10.20;;;0.70;99.90;;;;;;5073158;28;20031;-79
2021/04/27 02:38:13;;;;;;;14.60;11.10;;;0.60;99.90;;;;;;5072907;28;20025;-79
2021/04/27 02:40:38;;;;;;;14.73;11.13;;;0.70;99.90;;;;;;5072975;28;20024;-78
2021/04/27 02:43:05;;;;;;;15.40;10.32;;;0.70;99.90;;;;;;5071984;28;20529;-78
2021/04/27 02:45:33;;;;;;;14.30;10.40;;;0.70;99.90;;;;;;5072689;28;20487;-79
2021/04/27 02:48:06;;;;;;;15.90;11.45;;;0.60;99.90;;;;;;5072458;28;20021;-78
2021/04/27 02:50:32;;;;;;;15.13;10.20;;;0.60;99.90;;;;;;5073236;28;20017;-79
2021/04/27 02:52:58;;;;;;;16.55;11.40;;;0.60;99.90;;;;;;5072669;28;20035;-81
2021/04/27 02:55:23;;;;;;;14.40;10.60;;;0.50;99.90;;;;;;5073798;28;20032;-79
2021/04/27 02:57:49;;;;;;;14.27;10.32;;;0.50;99.90;;;;;;5072480;28;20032;-78
2021/04/27 03:00:15;;;;;;;16.92;10.60;;;0.50;99.90;;;;;;5073637;28;20052;-79
2021/04/27 03:02:41;;;;;;;14.77;11.30;;;0.50;99.90;;;;;;5072414;28;20028;-79
2021/04/27 03:05:07;;;;;;;19.35;10.98;;;0.50;99.90;;;;;;5073714;28;20494;-79
2021/04/27 03:07:33;;;;;;;20.45;10.57;;;0.50;99.90;;;;;;5073739;28;20021;-79
2021/04/27 03:09:58;;;;;;;16.70;10.75;;;0.60;99.90;;;;;;5072843;28;20036;-79
2021/04/27 03:12:24;;;;;;;11.88;10.00;;;0.60;99.90;;;;;;5072734;28;20063;-79
2021/04/27 03:14:50;;;;;;;15.57;12.20;;;0.50;99.90;;;;;;5072681;28;20089;-78
2021/04/27 03:17:17;;;;;;;13.45;11.32;;;0.50;99.90;;;;;;5072058;28;20028;-79
2021/04/27 03:19:42;;;;;;;13.52;10.23;;;0.50;99.90;;;;;;5072542;28;20400;-79
2021/04/27 03:22:08;;;;;;;13.13;9.75;;;0.40;99.90;;;;;;5072325;28;20028;-79
2021/04/27 03:24:33;;;;;;;13.95;9.88;;;0.40;99.90;;;;;;5073470;28;20032;-79
2021/04/27 03:26:59;;;;;;;14.32;10.75;;;0.40;99.90;;;;;;5073542;28;20043;-79
2021/04/27 03:29:25;;;;;;;14.38;10.45;;;0.40;99.90;;;;;;5072025;28;20024;-79
2021/04/27 03:31:50;;;;;;;13.50;10.38;;;0.40;99.90;;;;;;5072206;28;20123;-79
2021/04/27 03:34:16;;;;;;;15.52;10.30;;;0.40;99.90;;;;;;5072071;28;20039;-80
2021/04/27 03:36:42;;;;;;;16.50;10.50;;;0.40;99.90;;;;;;5072379;28;20046;-79
2021/04/27 03:39:08;;;;;;;14.52;10.73;;;0.30;99.90;;;;;;5072077;28;20447;-79
2021/04/27 03:41:33;;;;;;;15.27;10.02;;;0.30;99.90;;;;;;5072190;28;20028;-79
2021/04/27 03:43:59;;;;;;;14.93;10.20;;;0.30;99.90;;;;;;5072120;28;20039;-79
2021/04/27 03:46:24;;;;;;;14.65;10.20;;;0.30;99.90;;;;;;5071914;28;20132;-79
2021/04/27 03:48:50;;;;;;;14.80;11.10;;;0.30;99.90;;;;;;5073240;28;20055;-79
2021/04/27 03:51:16;;;;;;;17.92;11.13;;;0.30;99.90;;;;;;5072195;28;20088;-79
2021/04/27 03:53:42;;;;;;;15.15;10.95;;;0.30;99.90;;;;;;5070812;28;20028;-79
2021/04/27 03:56:07;;;;;;;14.13;10.18;;;0.40;99.90;;;;;;5071227;28;20032;-78
2021/04/27 03:58:33;;;;;;;15.05;10.65;;;0.40;99.90;;;;;;5071697;28;20043;-79
2021/04/27 04:00:59;;;;;;;16.55;11.52;;;0.40;99.90;;;;;;5071450;28;20055;-78
2021/04/27 04:03:24;;;;;;;20.02;12.70;;;0.50;99.90;;;;;;5071638;28;20035;-82
2021/04/27 04:05:50;;;;;;;18.30;12.13;;;0.60;99.90;;;;;;5071372;28;20033;-79
2021/04/27 04:08:16;;;;;;;14.30;11.15;;;0.60;99.90;;;;;;5072002;28;20025;-79
2021/04/27 04:10:41;;;;;;;16.70;11.23;;;0.50;99.90;;;;;;5073016;28;20020;-79
2021/04/27 04:13:07;;;;;;;22.13;11.80;;;0.50;99.90;;;;;;5072082;28;20021;-78
2021/04/27 04:15:32;;;;;;;21.17;10.23;;;0.60;99.90;;;;;;5071800;28;20380;-79
2021/04/27 04:17:58;;;;;;;18.73;10.45;;;0.70;99.90;;;;;;5071565;28;20115;-79
2021/04/27 04:20:25;;;;;;;17.30;10.15;;;0.60;99.90;;;;;;5071808;28;20104;-78
2021/04/27 04:22:51;;;;;;;16.20;11.25;;;0.60;99.90;;;;;;5071678;28;20028;-78
2021/04/27 04:25:18;;;;;;;16.60;11.60;;;0.60;99.90;;;;;;5071378;28;20024;-79
2021/04/27 04:27:44;;;;;;;16.38;11.52;;;0.50;99.90;;;;;;5071791;28;20025;-79
2021/04/27 04:30:17;;;;;;;18.05;11.63;;;0.50;99.90;;;;;;5071437;28;20042;-79
2021/04/27 04:32:43;;;;;;;15.75;12.65;;;0.50;99.90;;;;;;5071878;28;20033;-79
2021/04/27 04:35:11;;;;;;;19.45;13.77;;;0.50;99.90;;;;;;5071844;28;20024;-78
2021/04/27 04:37:37;;;;;;;18.92;12.85;;;0.60;99.90;;;;;;5072029;28;20025;-79
2021/04/27 04:40:05;;;;;;;21.13;14.05;;;0.60;99.90;;;;;;5072250;28;20016;-78
2021/04/27 04:42:31;;;;;;;18.65;13.18;;;0.70;99.90;;;;;;5071939;28;20025;-82
2021/04/27 04:44:56;;;;;;;21.35;13.25;;;0.80;99.90;;;;;;5072331;28;20043;-79
2021/04/27 04:47:22;;;;;;;14.45;11.77;;;0.90;99.90;;;;;;5071069;28;20040;-79
2021/04/27 04:49:48;;;;;;;21.50;13.23;;;2.70;99.90;;;;;;5076174;28;20066;-79
2021/04/27 04:52:13;;;;;;;25.23;17.15;;;2.20;99.90;;;;;;5071699;28;20032;-83
2021/04/27 04:54:40;;;;;;;20.55;13.35;;;2.30;99.90;;;;;;5071955;28;20056;-79
2021/04/27 04:57:06;;;;;;;15.88;11.80;;;2.20;99.90;;;;;;5075522;28;20028;-78
2021/04/27 04:59:31;;;;;;;16.92;12.20;;;2.20;99.90;;;;;;5070616;28;20033;-78
2021/04/27 05:01:57;;;;;;;19.58;11.77;;;2.10;99.90;;;;;;5071239;28;20058;-77
2021/04/27 05:04:23;;;;;;;17.40;11.30;;;2.00;99.90;;;;;;5071132;28;20110;-79
2021/04/27 05:06:50;;;;;;;17.98;12.38;;;2.10;99.90;;;;;;5073470;28;20037;-79
2021/04/27 05:09:16;;;;;;;15.77;12.48;;;2.20;99.90;;;;;;5074865;28;20031;-80
2021/04/27 05:11:43;;;;;;;19.02;10.98;;;2.30;99.90;;;;;;5074815;28;20021;-78
2021/04/27 05:14:09;;;;;;;14.32;10.98;;;2.20;99.90;;;;;;5074601;28;20028;-78
2021/04/27 05:16:34;;;;;;;15.93;10.93;;;2.10;99.90;;;;;;5075848;28;20025;-79
2021/04/27 05:19:01;;;;;;;16.77;10.88;;;2.10;99.90;;;;;;5074623;28;20020;-83
2021/04/27 05:21:27;;;;;;;15.45;11.00;;;2.00;99.90;;;;;;5075129;28;20028;-80
2021/04/27 05:23:53;;;;;;;14.38;11.48;;;1.90;99.90;;;;;;5074574;28;20478;-80
2021/04/27 05:26:18;;;;;;;15.93;11.73;;;1.90;99.90;;;;;;5074440;28;20387;-79
2021/04/27 05:28:44;;;;;;;14.90;11.32;;;2.00;99.90;;;;;;5074469;28;20490;-79
2021/04/27 05:31:10;;;;;;;20.58;12.13;;;2.00;99.90;;;;;;5074313;28;20529;-79
2021/04/27 05:33:36;;;;;;;19.35;11.90;;;2.00;99.90;;;;;;5074230;28;20052;-79
2021/04/27 05:36:02;;;;;;;18.02;12.30;;;2.00;99.90;;;;;;5074263;28;20040;-79
2021/04/27 05:38:28;;;;;;;16.25;11.35;;;2.20;99.90;;;;;;5075174;28;20476;-78
2021/04/27 05:40:54;;;;;;;18.90;12.15;;;2.30;99.90;;;;;;5074398;28;20070;-79
2021/04/27 05:43:20;;;;;;;19.10;12.32;;;2.40;99.90;;;;;;5074328;28;20127;-80
2021/04/27 05:45:45;;;;;;;15.25;11.98;;;2.40;99.90;;;;;;5074069;28;20032;-79
2021/04/27 05:48:11;;;;;;;19.25;11.80;;;2.50;99.90;;;;;;5073855;28;20530;-79
2021/04/27 05:50:37;;;;;;;15.95;11.60;;;2.50;99.90;;;;;;5075750;28;20102;-79
2021/04/27 05:53:03;;;;;;;17.15;12.88;;;2.70;99.90;;;;;;5074051;28;20052;-79
2021/04/27 05:55:29;;;;;;;18.25;12.82;;;2.70;99.90;;;;;;5073884;28;20052;-80
2021/04/27 05:57:55;;;;;;;20.25;12.10;;;2.80;99.90;;;;;;5073838;28;20036;-79
2021/04/27 06:00:21;;;;;;;15.07;11.52;;;2.90;99.90;;;;;;5073993;28;20052;-79
2021/04/27 06:02:47;;;;;;;16.55;12.10;;;3.00;99.90;;;;;;5075004;28;20032;-82
2021/04/27 06:05:13;;;;;;;20.67;12.82;;;3.00;99.90;;;;;;5074339;28;20040;-82
2021/04/27 06:07:39;;;;;;;18.30;11.57;;;3.10;99.90;;;;;;5074595;28;20044;-80
2021/04/27 06:10:07;;;;;;;17.67;12.07;;;3.10;99.90;;;;;;5073656;28;20499;-79
2021/04/27 06:12:33;;;;;;;15.68;11.75;;;3.40;99.90;;;;;;5075845;28;20418;-85
2021/04/27 06:14:59;;;;;;;15.20;11.38;;;3.50;99.90;;;;;;5074684;28;20039;-83
2021/04/27 06:17:25;;;;;;;17.00;11.27;;;3.50;99.90;;;;;;5073367;28;20024;-85
2021/04/27 06:19:51;;;;;;;17.10;11.48;;;3.60;99.90;;;;;;5075141;28;20560;-84
2021/04/27 06:22:16;;;;;;;16.65;11.15;;;3.60;99.90;;;;;;5075702;28;20024;-84
2021/04/27 06:24:42;;;;;;;13.32;10.98;;;3.80;99.90;;;;;;5075638;28;20035;-84
2021/04/27 06:27:08;;;;;;;16.80;11.10;;;3.80;99.90;;;;;;5075560;28;20036;-84
2021/04/27 06:29:34;;;;;;;15.40;11.27;;;3.80;99.90;;;;;;5076189;28;20029;-84
2021/04/27 06:32:00;;;;;;;15.85;11.30;;;3.90;99.90;;;;;;5075806;28;20051;-85
2021/04/27 06:34:25;;;;;;;14.82;11.95;;;3.90;99.90;;;;;;5075774;28;20475;-83
2021/04/27 06:36:51;;;;;;;19.05;12.85;;;3.80;99.90;;;;;;5075972;28;20028;-85
2021/04/27 06:39:17;;;;;;;16.25;11.38;;;4.00;99.90;;;;;;5075756;28;20028;-86
2021/04/27 06:41:42;;;;;;;19.67;11.48;;;3.90;99.90;;;;;;5075876;28;20025;-86
2021/04/27 06:44:09;;;;;;;15.55;11.95;;;3.90;99.90;;;;;;5075859;28;20482;-86
2021/04/27 06:46:34;;;;;;;14.63;11.57;;;3.90;99.90;;;;;;5075595;28;20123;-84
2021/04/27 06:49:00;;;;;;;17.60;12.00;;;4.00;99.90;;;;;;5075560;28;20446;-81
2021/04/27 06:51:26;;;;;;;16.15;11.05;;;4.10;99.90;;;;;;5075785;28;20429;-84
2021/04/27 06:53:52;;;;;;;18.40;11.65;;;4.20;99.90;;;;;;5076514;28;20112;-85
2021/04/27 06:56:18;;;;;;;14.73;11.38;;;4.20;99.90;;;;;;5075474;28;20071;-83
2021/04/27 06:58:44;;;;;;;23.67;17.30;;;4.30;99.90;;;;;;5075903;28;20032;-84
2021/04/27 07:01:10;;;;;;;23.98;16.45;;;4.40;99.90;;;;;;5075609;28;20053;-85
2021/04/27 07:03:36;;;;;;;17.80;13.90;;;4.60;99.90;;;;;;5075370;28;20437;-84
2021/04/27 07:06:03;;;;;;;16.10;11.40;;;4.70;99.90;;;;;;5076137;28;20041;-85
2021/04/27 07:08:29;;;;;;;17.30;11.68;;;4.80;99.90;;;;;;5075396;28;20025;-85
2021/04/27 07:10:57;;;;;;;15.27;11.90;;;4.80;99.90;;;;;;5074881;28;20025;-84
2021/04/27 07:13:24;;;;;;;17.63;11.73;;;4.80;99.90;;;;;;5075292;28;20063;-85
2021/04/27 07:15:50;;;;;;;18.63;9.65;;;4.80;99.90;;;;;;5075329;28;20025;-85
2021/04/27 07:18:15;;;;;;;13.15;9.38;;;7.80;99.90;;;;;;5074585;28;20483;-86
2021/04/27 07:20:42;;;;;;;15.43;8.52;;;9.50;98.70;;;;;;5074858;28;20024;-86
2021/04/27 07:23:08;;;;;;;11.00;8.32;;;9.70;95.70;;;;;;5075747;28;20024;-85
2021/04/27 07:25:35;;;;;;;12.57;8.70;;;10.10;94.30;;;;;;5074812;28;20032;-86
2021/04/27 07:28:01;;;;;;;11.80;9.60;;;10.10;93.50;;;;;;5074809;28;20082;-85
2021/04/27 07:30:27;;;;;;;12.73;9.70;;;10.00;94.00;;;;;;5074668;28;20024;-85
2021/04/27 07:32:53;;;;;;;13.30;8.98;;;9.50;94.50;;;;;;5075455;28;20030;-86
2021/04/27 07:35:19;;;;;;;10.30;8.55;;;9.50;95.60;;;;;;5074111;28;20459;-84
2021/04/27 07:37:45;;;;;;;17.50;9.73;;;9.30;95.60;;;;;;5074228;28;20083;-84
2021/04/27 07:40:12;;;;;;;12.18;8.70;;;8.80;96.20;;;;;;5073763;28;20020;-79
2021/04/27 07:42:38;;;;;;;13.02;8.85;;;9.10;95.70;;;;;;5072103;28;20859;-80
2021/04/27 07:45:05;;;;;;;9.55;8.40;;;8.90;95.80;;;;;;5073626;28;20024;-79
2021/04/27 07:47:31;;;;;;;13.82;8.85;;;9.40;96.30;;;;;;5072434;28;20119;-82
2021/04/27 07:49:57;;;;;;;12.75;8.80;;;9.50;95.60;;;;;;5072505;28;20067;-79
2021/04/27 07:52:25;;;;;;;12.73;8.13;;;10.00;94.70;;;;;;5072526;28;20106;-79
2021/04/27 07:54:50;;;;;;;12.90;8.52;;;10.40;93.20;;;;;;5072862;28;20092;-80
2021/04/27 07:57:16;;;;;;;10.35;7.80;;;10.30;91.40;;;;;;5072031;28;20475;-79
2021/04/27 07:59:42;;;;;;;12.77;9.18;;;10.50;92.40;;;;;;5071495;28;20044;-79
2021/04/27 08:02:08;;;;;;;14.20;9.77;;;9.60;92.50;;;;;;5067403;28;20051;-83
2021/04/27 08:04:34;;;;;;;14.73;10.68;;;8.50;95.00;;;;;;5059149;28;20017;-82
2021/04/27 08:06:59;;;;;;;12.23;9.55;;;7.80;96.90;;;;;;5072656;28;20039;-83
2021/04/27 08:09:25;;;;;;;35.72;23.67;;;7.30;98.40;;;;;;5072809;28;20021;-85
2021/04/27 08:11:53;;;;;;;13.93;10.60;;;6.90;99.90;;;;;;5072771;28;20029;-81
2021/04/27 08:14:20;;;;;;;14.00;11.07;;;6.70;99.90;;;;;;5072237;28;20050;-81
2021/04/27 08:16:46;;;;;;;16.13;11.75;;;6.40;99.90;;;;;;5072393;28;20032;-81
2021/04/27 08:19:11;;;;;;;13.95;10.93;;;6.40;99.90;;;;;;5072216;28;20025;-81
2021/04/27 08:21:37;;;;;;;17.10;12.68;;;6.20;99.90;;;;;;5072284;28;20028;-81
2021/04/27 08:24:04;;;;;;;15.77;11.77;;;6.10;99.90;;;;;;5072464;28;20479;-84
2021/04/27 08:26:30;;;;;;;18.15;11.70;;;6.10;99.90;;;;;;5073098;28;20032;-86
2021/04/27 08:28:55;;;;;;;18.85;13.55;;;6.00;99.90;;;;;;5072966;28;20024;-82
2021/04/27 08:31:22;;;;;;;16.35;12.73;;;6.10;99.90;;;;;;5072097;28;20032;-78
2021/04/27 08:33:48;;;;;;;17.48;12.70;;;6.10;99.90;;;;;;5070825;28;20062;-80
2021/04/27 08:36:14;;;;;;;16.98;12.70;;;6.10;99.90;;;;;;5070806;28;20052;-83
2021/04/27 08:38:41;;;;;;;14.93;11.20;;;6.10;99.90;;;;;;5071988;28;20475;-83
2021/04/27 08:41:06;;;;;;;18.70;11.98;;;6.20;99.90;;;;;;5074162;28;20020;-82
2021/04/27 08:43:33;;;;;;;15.68;11.63;;;6.00;99.90;;;;;;5076841;28;20078;-85
2021/04/27 08:45:59;;;;;;;21.10;9.60;;;5.90;99.90;;;;;;5076982;28;20051;-86
2021/04/27 08:48:24;;;;;;;13.52;9.60;;;6.80;99.90;;;;;;5077101;28;20025;-83
2021/04/27 08:50:51;;;;;;;19.88;10.25;;;7.60;99.90;;;;;;5077109;28;20024;-84
2021/04/27 08:53:17;;;;;;;13.65;9.75;;;8.70;98.20;;;;;;5076867;28;20024;-78
2021/04/27 08:55:43;;;;;;;18.00;10.55;;;8.70;97.60;;;;;;5074433;28;20064;-79
2021/04/27 08:58:11;;;;;;;14.98;9.75;;;9.00;97.40;;;;;;5075608;28;20044;-79
2021/04/27 09:00:38;;;;;;;12.00;9.20;;;9.80;96.20;;;;;;5074293;28;20082;-80
2021/04/27 09:03:05;;;;;;;23.48;10.18;;;9.80;94.90;;;;;;5074297;28;20021;-81
2021/04/27 09:05:35;;;;;;;14.15;9.82;;;9.60;94.90;;;;;;5074414;28;20162;-78
2021/04/27 09:08:01;;;;;;;13.25;8.90;;;9.90;94.40;;;;;;5074266;28;20364;-78
2021/04/27 09:10:44;;;;;;;12.70;9.65;;;9.80;95.20;;;;;;5075713;28;20040;-80
2021/04/27 09:13:15;;;;;;;15.93;13.35;;;9.70;95.10;;;;;;5075831;28;20123;-85
2021/04/27 09:15:51;;;;;;;12.95;9.82;;;9.40;95.80;;;;;;5075489;28;20518;-81
2021/04/27 09:18:34;;;;;;;16.67;10.20;;;9.20;95.60;;;;;;5075147;28;20043;-83
2021/04/27 09:21:03;;;;;;;13.45;10.13;;;9.20;96.30;;;;;;5074802;28;20476;-80
2021/04/27 09:23:31;;;;;;;13.43;9.52;;;9.50;95.30;;;;;;5076150;28;20028;-80
2021/04/27 09:26:13;;;;;;;14.27;9.70;;;9.50;95.60;;;;;;5074488;28;20024;-80
2021/04/27 09:28:48;;;;;;;13.75;10.18;;;9.80;95.30;;;;;;5074695;28;20032;-80
2021/04/27 09:31:20;;;;;;;17.40;11.55;;;9.70;94.90;;;;;;5075873;28;20463;-80
2021/04/27 09:33:45;;;;;;;22.92;11.90;;;9.70;95.00;;;;;;5074470;28;20037;-79
2021/04/27 09:36:18;;;;;;;16.63;10.75;;;9.90;94.70;;;;;;5075913;28;20104;-79
2021/04/27 09:38:43;;;;;;;18.70;11.02;;;9.60;95.20;;;;;;5073910;28;20088;-79
2021/04/27 09:41:09;;;;;;;16.55;10.35;;;9.60;95.80;;;;;;5074481;28;20028;-81
2021/04/27 09:43:45;;;;;;;27.90;10.77;;;9.70;96.20;;;;;;5075400;28;20024;-82
2021/04/27 09:46:18;;;;;;;19.48;14.32;;;9.50;96.30;;;;;;5075486;28;20510;-85
2021/04/27 09:48:46;;;;;;;18.15;12.27;;;9.10;96.30;;;;;;5075334;28;20138;-84
2021/04/27 09:51:12;;;;;;;16.60;11.93;;;8.90;97.50;;;;;;5075127;28;20025;-86
2021/04/27 09:53:40;;;;;;;14.50;10.55;;;8.50;98.10;;;;;;5074892;28;20021;-84
2021/04/27 09:56:06;;;;;;;14.15;10.57;;;8.50;98.50;;;;;;5075174;28;20442;-84
2021/04/27 09:58:32;;;;;;;18.25;12.60;;;8.40;98.50;;;;;;5075067;28;20034;-83
2021/04/27 10:00:58;;;;;;;15.73;11.50;;;8.40;98.60;;;;;;5074754;28;20049;-83
2021/04/27 10:03:25;;;;;;;16.02;11.75;;;8.40;98.60;;;;;;5075140;28;20028;-85
2021/04/27 10:05:53;;;;;;;17.65;11.05;;;8.40;98.80;;;;;;5075008;28;20072;-82
2021/04/27 10:08:19;;;;;;;15.50;11.70;;;8.60;98.60;;;;;;5076084;28;20100;-86
2021/04/27 10:10:47;;;;;;;18.05;11.88;;;8.50;99.10;;;;;;5074928;28;20537;-83
2021/04/27 10:13:13;;;;;;;13.32;10.75;;;8.40;98.70;;;;;;5074891;28;20048;-84
2021/04/27 10:15:40;;;;;;;14.95;10.93;;;8.50;98.50;;;;;;5074889;28;20036;-86
2021/04/27 10:18:08;;;;;;;14.27;10.70;;;8.60;98.90;;;;;;5074719;28;20024;-84
2021/04/27 10:20:34;;;;;;;17.80;11.60;;;8.50;98.70;;;;;;5075008;28;20036;-84
2021/04/27 10:23:03;;;;;;;14.93;11.82;;;8.60;99.00;;;;;;5074705;28;20495;-86
2021/04/27 10:25:30;;;;;;;13.80;11.45;;;8.50;98.50;;;;;;5074794;28;20502;-83
2021/04/27 10:28:08;;;;;;;15.32;10.52;;;8.60;98.40;;;;;;5074635;28;20123;-85
2021/04/27 10:30:47;;;;;;;13.68;11.25;;;8.60;98.50;;;;;;5075198;28;20039;-84
2021/04/27 10:33:15;;;;;;;20.98;13.43;;;8.60;98.50;;;;;;5074303;28;20028;-84
2021/04/27 10:35:59;;;;;;;26.73;17.33;;;8.60;98.20;;;;;;5074488;28;20060;-87
2021/04/27 10:38:44;;;;;;;30.15;16.85;;;8.70;98.60;;;;;;5074247;28;20020;-84
2021/04/27 10:41:12;;;;;;;16.30;11.88;;;8.90;98.20;;;;;;5075307;28;20036;-85
2021/04/27 10:43:40;;;;;;;24.20;15.02;;;8.90;97.80;;;;;;5075417;28;20074;-84
2021/04/27 10:46:28;;;;;;;18.15;14.35;;;8.90;98.00;;;;;;5073733;28;20123;-84
2021/04/27 10:49:10;;;;;;;14.50;11.95;;;9.00;98.20;;;;;;5073635;28;20082;-83
2021/04/27 10:51:38;;;;;;;17.55;12.15;;;9.00;97.70;;;;;;5074135;28;20490;-84
2021/04/27 10:54:20;;;;;;;13.90;11.52;;;9.10;97.80;;;;;;5073975;28;20024;-84
2021/04/27 10:57:05;;;;;;;16.05;10.88;;;9.20;97.90;;;;;;5073904;28;20108;-83
2021/04/27 10:59:47;;;;;;;14.90;10.67;;;9.40;97.30;;;;;;5073613;28;20097;-86
2021/04/27 11:02:17;;;;;;;13.25;10.70;;;9.50;96.80;;;;;;5073996;28;20269;-84
2021/04/27 11:04:48;;;;;;;15.50;11.55;;;9.70;96.60;;;;;;5073101;28;20521;-85
2021/04/27 11:07:19;;;;;;;18.17;12.65;;;9.80;96.10;;;;;;5073584;28;20044;-85
2021/04/27 11:10:01;;;;;;;15.88;11.63;;;10.00;95.70;;;;;;5073667;28;20113;-84
2021/04/27 11:12:36;;;;;;;13.13;10.85;;;10.00;95.40;;;;;;5074009;28;20498;-86
2021/04/27 11:15:02;;;;;;;;;;;10.10;95.50;;;;;;5074110;28;20032;-83
2021/04/27 11:17:33;;;;;;;13.65;10.45;;;10.20;94.70;;;;;;5073641;28;19904;-85
2021/04/27 11:20:00;;;;;;;13.63;10.95;;;10.30;95.20;;;;;;5074595;28;20028;-85
2021/04/27 11:22:32;;;;;;;12.68;10.05;;;10.50;94.70;;;;;;5073653;28;20380;-83
2021/04/27 11:25:07;;;;;;;14.02;11.35;;;10.70;94.20;;;;;;5073526;28;20028;-83
2021/04/27 11:27:34;;;;;;;11.60;10.40;;;10.70;94.50;;;;;;5073107;28;20038;-83
2021/04/27 11:30:09;;;;;;;15.23;10.93;;;10.70;93.90;;;;;;5073414;28;20364;-82
2021/04/27 11:32:37;;;;;;;46.08;32.80;;;10.80;93.60;;;;;;5073319;28;20388;-83
2021/04/27 11:35:14;;;;;;;12.07;10.07;;;10.80;94.10;;;;;;5073325;28;20093;-87
2021/04/27 11:37:46;;;;;;;11.80;9.85;;;10.90;93.30;;;;;;5073326;28;20078;-85
2021/04/27 11:40:30;;;;;;;14.00;10.23;;;11.10;93.40;;;;;;5074294;28;20020;-86
2021/04/27 11:43:04;;;;;;;14.98;10.43;;;11.20;93.80;;;;;;5073166;28;20078;-84
2021/04/27 11:45:36;;;;;;;15.10;11.98;;;11.20;92.70;;;;;;5073334;28;20013;-87
2021/04/27 11:48:03;;;;;;;12.30;10.38;;;11.20;92.20;;;;;;5073210;28;20031;-84
2021/04/27 11:50:30;;;;;;;14.55;10.55;;;11.10;92.90;;;;;;5073268;28;20532;-85
2021/04/27 11:53:01;;;;;;;13.13;9.88;;;11.20;93.00;;;;;;5073096;28;20029;-85
2021/04/27 11:55:39;;;;;;;11.80;9.68;;;11.20;92.20;;;;;;5073039;28;20047;-84
2021/04/27 11:58:09;;;;;;;11.82;9.32;;;11.30;92.20;;;;;;5073025;28;20017;-84
2021/04/27 12:00:43;;;;;;;11.82;10.05;;;11.30;92.10;;;;;;5072813;28;20052;-87
2021/04/27 12:03:22;;;;;;;16.02;12.32;;;11.40;91.60;;;;;;5072943;28;20111;-85
2021/04/27 12:05:51;;;;;;;16.33;12.45;;;11.60;91.50;;;;;;5073081;28;20499;-83
2021/04/27 12:08:21;;;;;;;14.82;10.05;;;11.60;91.20;;;;;;5072878;28;20120;-83
2021/04/27 12:10:48;;;;;;;13.50;11.07;;;11.90;90.80;;;;;;5072942;28;20107;-83
2021/04/27 12:13:33;;;;;;;14.77;10.57;;;12.10;90.20;;;;;;5072972;28;20027;-84
2021/04/27 12:16:08;;;;;;;12.20;10.13;;;12.20;89.30;;;;;;5076411;28;20017;-87
2021/04/27 12:18:59;;;;;;;18.58;9.88;;;12.20;89.40;;;;;;5077876;28;20029;-87
2021/04/27 12:21:40;;;;;;;16.00;10.25;;;12.20;88.70;;;;;;5078521;28;20025;-87
2021/04/27 12:24:26;;;;;;;12.60;9.90;;;12.10;89.00;;;;;;5075242;28;20020;-83
2021/04/27 12:26:56;;;;;;;15.07;11.07;;;11.90;90.20;;;;;;5056783;28;20150;-84
2021/04/27 12:29:28;;;;;;;14.98;11.05;;;11.90;90.20;;;;;;5056565;28;20079;-85
2021/04/27 12:31:54;;;;;;;14.55;9.73;;;11.90;90.30;;;;;;5057121;28;20124;-87
2021/04/27 12:34:20;;;;;;;15.95;10.13;;;12.00;90.30;;;;;;5057495;28;20037;-84
2021/04/27 12:36:50;;;;;;;14.18;10.40;;;12.10;89.00;;;;;;5057343;28;20036;-84
2021/04/27 12:39:18;;;;;;;14.05;10.45;;;12.20;87.60;;;;;;5057626;28;20028;-87
2021/04/27 12:41:44;;;;;;;13.20;9.77;;;12.00;88.80;;;;;;5056992;28;20036;-84
2021/04/27 12:44:37;;;;;;;17.38;13.07;;;12.00;89.80;;;;;;5057280;28;20027;-86